createdAt,value
2022-11-14T00:00:56.835Z,5.20
2022-11-14T00:03:42.088Z,5.85
2022-11-14T00:06:27.453Z,5.55
2022-11-14T00:09:12.819Z,5.07
2022-11-14T00:11:58.350Z,5.63
2022-11-14T00:14:43.959Z,4.95
2022-11-14T00:17:29.520Z,5.13
2022-11-14T00:20:15.097Z,5.05
2022-11-14T00:23:00.490Z,4.85
2022-11-14T00:25:46.625Z,4.13
2022-11-14T00:28:32.318Z,4.57
2022-11-14T00:31:17.911Z,4.55
2022-11-14T00:34:03.801Z,4.30
2022-11-14T00:36:48.827Z,4.60
2022-11-14T00:39:34.268Z,4.40
2022-11-14T00:42:19.713Z,4.47
2022-11-14T00:45:05.558Z,3.83
2022-11-14T00:47:50.927Z,4.72
2022-11-14T00:50:37.912Z,5.07
2022-11-14T00:53:23.581Z,4.70
2022-11-14T00:56:09.059Z,4.38
2022-11-14T00:58:54.556Z,4.57
2022-11-14T01:01:40.138Z,4.75
2022-11-14T01:04:25.512Z,4.68
2022-11-14T01:07:11.070Z,4.22
2022-11-14T01:09:56.670Z,3.55
2022-11-14T01:12:42.224Z,3.58
2022-11-14T01:15:27.683Z,3.58
2022-11-14T01:18:17.770Z,4.40
2022-11-14T01:21:09.073Z,4.60
2022-11-14T01:23:54.433Z,4.72
2022-11-14T01:26:39.914Z,4.68
2022-11-14T01:29:25.317Z,4.07
2022-11-14T01:32:10.742Z,4.85
2022-11-14T01:34:56.051Z,4.78
2022-11-14T01:37:41.431Z,4.60
2022-11-14T01:40:27.525Z,4.40
2022-11-14T01:43:18.972Z,4.28
2022-11-14T01:46:07.586Z,4.70
2022-11-14T01:52:03.248Z,5.53
2022-11-14T01:54:52.360Z,4.65
2022-11-14T01:57:42.237Z,5.00
2022-11-14T02:00:27.607Z,4.63
2022-11-14T02:03:15.030Z,4.72
2022-11-14T02:06:01.856Z,4.32
2022-11-14T02:08:48.583Z,4.88
2022-11-14T02:11:38.396Z,4.03
2022-11-14T02:14:23.509Z,4.03
2022-11-14T02:20:13.933Z,4.47
2022-11-14T02:22:59.335Z,4.75
2022-11-14T02:25:44.984Z,5.00
2022-11-14T02:28:30.580Z,4.05
2022-11-14T02:31:16.860Z,4.15
2022-11-14T02:34:01.963Z,4.82
2022-11-14T02:36:47.311Z,3.67
2022-11-14T02:39:32.871Z,3.42
2022-11-14T02:42:18.140Z,3.00
2022-11-14T02:45:04.060Z,2.53
2022-11-14T02:47:49.526Z,4.18
2022-11-14T02:50:34.863Z,3.95
2022-11-14T02:53:20.465Z,3.97
2022-11-14T02:56:06.012Z,4.10
2022-11-14T02:58:51.720Z,4.07
2022-11-14T03:01:37.354Z,3.78
2022-11-14T03:04:22.479Z,3.83
2022-11-14T03:10:09.475Z,4.63
2022-11-14T03:13:22.428Z,4.72
2022-11-14T03:16:10.760Z,4.85
2022-11-14T03:18:56.214Z,3.83
2022-11-14T03:21:41.320Z,4.47
2022-11-14T03:24:26.830Z,3.85
2022-11-14T03:27:13.218Z,4.30
2022-11-14T03:29:58.263Z,3.53
2022-11-14T03:32:43.667Z,3.22
2022-11-14T03:35:29.071Z,3.60
2022-11-14T03:38:14.554Z,4.55
2022-11-14T03:41:01.100Z,4.13
2022-11-14T03:43:46.307Z,3.97
2022-11-14T03:46:31.680Z,3.25
2022-11-14T03:49:17.025Z,4.00
2022-11-14T03:52:02.486Z,4.28
2022-11-14T03:54:48.159Z,3.75
2022-11-14T03:57:33.679Z,3.85
2022-11-14T04:00:19.552Z,4.32
2022-11-14T04:03:05.111Z,3.72
2022-11-14T04:05:51.228Z,3.45
2022-11-14T04:08:36.695Z,2.20
2022-11-14T04:11:22.218Z,2.55
2022-11-14T04:14:07.817Z,2.90
2022-11-14T04:16:53.181Z,2.17
2022-11-14T04:19:38.618Z,3.00
2022-11-14T04:22:23.985Z,2.70
2022-11-14T04:25:09.866Z,2.60
2022-11-14T04:27:55.255Z,2.25
2022-11-14T04:30:41.185Z,2.33
2022-11-14T04:33:27.086Z,2.80
2022-11-14T04:36:12.444Z,3.95
2022-11-14T04:38:57.708Z,3.63
2022-11-14T04:41:43.473Z,4.47
2022-11-14T04:44:28.623Z,4.55
2022-11-14T04:47:13.980Z,3.58
2022-11-14T04:49:59.499Z,4.03
2022-11-14T04:52:44.900Z,4.13
2022-11-14T04:55:30.351Z,3.90
2022-11-14T04:58:15.685Z,4.65
2022-11-14T05:01:08.089Z,4.65
2022-11-14T05:03:53.224Z,4.95
2022-11-14T05:06:38.572Z,2.83
2022-11-14T05:09:23.916Z,3.50
2022-11-14T05:12:09.347Z,3.20
2022-11-14T05:14:54.653Z,3.35
2022-11-14T05:17:40.238Z,4.28
2022-11-14T05:20:25.491Z,4.95
2022-11-14T05:23:21.202Z,5.00
2022-11-14T05:26:12.552Z,6.25
2022-11-14T05:28:57.691Z,5.43
2022-11-14T05:31:42.956Z,7.60
2022-11-14T05:34:28.612Z,8.48
2022-11-14T05:37:13.885Z,7.10
2022-11-14T05:39:59.339Z,7.75
2022-11-14T05:42:44.995Z,7.25
2022-11-14T05:45:30.838Z,7.13
2022-11-14T05:48:15.992Z,8.45
2022-11-14T05:51:03.784Z,9.18
2022-11-14T05:53:49.310Z,7.03
2022-11-14T05:56:34.751Z,8.30
2022-11-14T05:59:19.996Z,10.95
2022-11-14T06:02:05.299Z,10.07
2022-11-14T06:04:50.659Z,9.82
2022-11-14T06:07:37.067Z,8.65
2022-11-14T06:10:22.764Z,7.07
2022-11-14T06:13:08.059Z,7.95
2022-11-14T06:15:53.509Z,13.30
2022-11-14T06:18:39.792Z,9.57
2022-11-14T06:21:26.545Z,7.97
2022-11-14T06:24:12.057Z,8.20
2022-11-14T06:26:57.424Z,6.75
2022-11-14T06:29:42.969Z,7.57
2022-11-14T06:32:28.408Z,5.88
2022-11-14T06:35:13.901Z,5.88
2022-11-14T06:38:02.218Z,5.20
2022-11-14T06:40:47.670Z,4.57
2022-11-14T06:43:34.726Z,10.88
2022-11-14T06:46:21.528Z,10.77
2022-11-14T06:49:06.929Z,8.20
2022-11-14T06:51:52.377Z,5.00
2022-11-14T06:54:37.751Z,5.25
2022-11-14T06:57:23.093Z,4.78
2022-11-14T07:00:08.931Z,5.53
2022-11-14T07:02:54.551Z,7.43
2022-11-14T07:05:39.955Z,8.35
2022-11-14T07:08:25.410Z,7.03
2022-11-14T07:11:26.479Z,8.55
2022-11-14T07:14:11.903Z,7.30
2022-11-14T07:16:58.148Z,7.65
2022-11-14T07:19:43.320Z,8.98
2022-11-14T07:22:28.785Z,9.10
2022-11-14T07:25:14.293Z,9.25
2022-11-14T07:27:59.527Z,5.47
2022-11-14T07:30:45.021Z,7.60
2022-11-14T07:33:31.518Z,7.20
2022-11-14T07:36:17.225Z,8.23
2022-11-14T07:39:02.468Z,7.43
2022-11-14T07:41:47.774Z,6.85
2022-11-14T07:44:33.212Z,7.63
2022-11-14T07:47:18.855Z,7.60
2022-11-14T07:50:04.397Z,7.82
2022-11-14T07:52:54.299Z,10.05
2022-11-14T07:55:39.927Z,11.90
2022-11-14T07:58:25.328Z,14.35
2022-11-14T08:01:12.520Z,13.23
2022-11-14T08:03:57.742Z,12.75
2022-11-14T08:06:43.177Z,10.05
2022-11-14T08:09:28.581Z,10.32
2022-11-14T08:12:13.872Z,10.98
2022-11-14T08:14:59.406Z,10.88
2022-11-14T08:17:44.768Z,8.18
2022-11-14T08:20:30.645Z,8.80
2022-11-14T08:23:16.298Z,7.00
2022-11-14T08:26:01.792Z,9.43
2022-11-14T08:28:47.336Z,7.35
2022-11-14T08:31:32.687Z,7.10
2022-11-14T08:34:18.063Z,7.50
2022-11-14T08:37:03.646Z,6.85
2022-11-14T08:39:48.968Z,8.10
2022-11-14T08:42:34.507Z,7.25
2022-11-14T08:45:19.756Z,6.40
2022-11-14T08:48:05.824Z,6.80
2022-11-14T08:50:51.182Z,6.82
2022-11-14T08:53:36.574Z,6.47
2022-11-14T08:56:22.213Z,6.68
2022-11-14T08:59:07.466Z,6.65
2022-11-14T09:01:52.853Z,7.07
2022-11-14T09:04:38.460Z,6.50
2022-11-14T09:07:23.865Z,5.88
2022-11-14T09:10:02.623Z,6.45
2022-11-14T09:12:47.722Z,6.20
2022-11-14T09:15:34.007Z,6.65
2022-11-14T09:18:19.460Z,6.65
2022-11-14T09:21:07.473Z,6.70
2022-11-14T09:23:56.159Z,6.57
2022-11-14T09:26:44.076Z,6.53
2022-11-14T09:29:29.451Z,5.97
2022-11-14T09:32:14.979Z,6.53
2022-11-14T09:35:00.339Z,6.63
2022-11-14T09:37:45.888Z,6.63
2022-11-14T09:40:44.703Z,5.95
2022-11-14T09:43:50.604Z,6.85
2022-11-14T09:46:44.878Z,5.85
2022-11-14T09:49:40.977Z,6.30
2022-11-14T09:52:26.184Z,6.68
2022-11-14T09:55:19.652Z,5.97
2022-11-14T09:58:08.431Z,5.50
2022-11-14T10:01:09.355Z,5.70
2022-11-14T10:04:09.718Z,3.85
2022-11-14T10:07:13.481Z,3.63
2022-11-14T10:10:40.815Z,2.75
2022-11-14T10:13:39.328Z,3.35
2022-11-14T10:16:31.205Z,2.60
2022-11-14T10:19:41.434Z,3.05
2022-11-14T10:22:58.646Z,2.90
2022-11-14T10:26:10.142Z,2.83
2022-11-14T10:29:16.864Z,2.67
2022-11-14T10:32:12.304Z,2.92
2022-11-14T10:35:21.104Z,2.63
2022-11-14T10:38:38.726Z,2.80
2022-11-14T10:41:55.184Z,2.60
2022-11-14T10:44:42.176Z,3.17
2022-11-14T10:47:35.239Z,3.53
2022-11-14T10:50:25.018Z,2.90
2022-11-14T10:53:51.440Z,2.33
2022-11-14T10:56:53.415Z,2.45
2022-11-14T10:59:38.587Z,2.28
2022-11-14T11:02:23.823Z,2.03
2022-11-14T11:05:16.530Z,2.08
2022-11-14T11:08:41.922Z,1.70
2022-11-14T11:11:32.018Z,2.05
2022-11-14T11:14:19.491Z,1.77
2022-11-14T11:17:11.587Z,1.70
2022-11-14T11:20:37.214Z,2.47
2022-11-14T11:23:26.180Z,2.45
2022-11-14T11:26:31.892Z,1.80
2022-11-14T11:29:19.492Z,2.42
2022-11-14T11:32:05.251Z,2.10
2022-11-14T11:34:51.895Z,2.40
2022-11-14T11:37:54.628Z,2.55
2022-11-14T11:40:41.440Z,3.92
2022-11-14T11:43:41.383Z,4.03
2022-11-14T11:46:47.837Z,4.10
2022-11-14T11:49:33.283Z,4.07
2022-11-14T11:52:44.047Z,4.53
2022-11-14T11:55:33.712Z,3.70
2022-11-14T11:58:28.058Z,3.38
2022-11-14T12:01:14.366Z,3.53
2022-11-14T12:04:01.670Z,3.45
2022-11-14T12:07:04.535Z,3.33
2022-11-14T12:10:09.842Z,3.38
2022-11-14T12:13:14.664Z,2.95
2022-11-14T12:16:41.285Z,3.97
2022-11-14T12:19:38.105Z,2.95
2022-11-14T12:22:35.532Z,2.90
2022-11-14T12:25:35.395Z,2.67
2022-11-14T12:28:59.361Z,2.72
2022-11-14T12:31:46.631Z,2.25
2022-11-14T12:34:33.831Z,2.60
2022-11-14T12:37:29.404Z,2.65
2022-11-14T12:40:39.664Z,3.50
2022-11-14T12:43:38.525Z,3.25
2022-11-14T12:46:23.799Z,3.42
2022-11-14T12:49:49.541Z,3.20
2022-11-14T12:52:41.123Z,3.00
2022-11-14T12:55:26.495Z,3.03
2022-11-14T12:58:20.224Z,3.13
2022-11-14T13:01:28.234Z,8.35
2022-11-14T13:04:18.365Z,6.57
2022-11-14T13:07:33.926Z,4.47
2022-11-14T13:10:39.810Z,24.95
2022-11-14T13:13:43.433Z,7.05
2022-11-14T13:16:51.379Z,4.90
2022-11-14T13:20:04.916Z,5.22
2022-11-14T13:22:50.412Z,5.43
2022-11-14T13:25:35.865Z,5.93
2022-11-14T13:28:49.828Z,5.20
2022-11-14T13:31:45.820Z,5.18
2022-11-14T13:34:36.659Z,4.68
2022-11-14T13:37:43.958Z,5.68
2022-11-14T13:40:40.777Z,5.57
2022-11-14T13:44:04.549Z,6.05
2022-11-14T13:47:18.187Z,4.72
2022-11-14T13:50:10.969Z,4.10
2022-11-14T13:52:56.849Z,3.55
2022-11-14T13:55:56.296Z,4.72
2022-11-14T13:58:50.702Z,4.80
2022-11-14T14:02:08.049Z,4.13
2022-11-14T14:05:14.720Z,4.03
2022-11-14T14:08:15.492Z,4.18
2022-11-14T14:11:19.315Z,3.75
2022-11-14T14:14:23.286Z,4.70
2022-11-14T14:17:45.309Z,3.25
2022-11-14T14:20:44.467Z,4.93
2022-11-14T14:23:55.857Z,5.10
2022-11-14T14:27:02.512Z,5.72
2022-11-14T14:29:55.458Z,3.47
2022-11-14T14:32:40.606Z,3.88
2022-11-14T14:35:29.247Z,3.25
2022-11-14T14:38:26.292Z,2.17
2022-11-14T14:41:14.329Z,2.65
2022-11-14T14:44:00.127Z,2.47
2022-11-14T14:46:45.289Z,3.05
2022-11-14T14:49:35.336Z,3.40
2022-11-14T14:52:36.825Z,3.60
2022-11-14T14:55:40.529Z,4.60
2022-11-14T14:58:29.727Z,4.47
2022-11-14T15:01:21.239Z,4.97
2022-11-14T15:04:08.680Z,4.63
2022-11-14T15:06:57.391Z,4.00
2022-11-14T15:14:24.743Z,4.45
2022-11-14T15:17:10.850Z,4.75
2022-11-14T15:19:56.283Z,4.78
2022-11-14T15:22:41.620Z,4.40
2022-11-14T15:25:27.363Z,4.07
2022-11-14T15:28:16.471Z,4.95
2022-11-14T15:31:04.022Z,5.03
2022-11-14T15:34:30.824Z,7.73
2022-11-14T15:37:18.798Z,10.18
2022-11-14T15:40:21.380Z,8.60
2022-11-14T15:43:48.076Z,6.90
2022-11-14T15:46:33.530Z,5.22
2022-11-14T15:49:25.380Z,4.82
2022-11-14T15:52:28.349Z,5.05
2022-11-14T15:55:20.483Z,5.20
2022-11-14T15:58:28.891Z,4.65
2022-11-14T16:01:22.856Z,5.38
2022-11-14T16:04:17.249Z,5.47
2022-11-14T16:07:03.382Z,5.38
2022-11-14T16:09:48.731Z,5.40
2022-11-14T16:12:34.185Z,4.82
2022-11-14T16:15:20.415Z,7.75
2022-11-14T16:18:06.416Z,25.80
2022-11-14T16:20:51.895Z,10.48
2022-11-14T16:23:37.125Z,7.57
2022-11-14T16:26:22.486Z,9.95
2022-11-14T16:29:08.021Z,12.40
2022-11-14T16:31:55.096Z,9.07
2022-11-14T16:34:40.262Z,6.93
2022-11-14T16:37:25.532Z,6.05
2022-11-14T16:40:27.412Z,4.95
2022-11-14T16:43:14.421Z,6.25
2022-11-14T16:46:04.576Z,6.18
2022-11-14T16:48:49.872Z,7.13
2022-11-14T16:51:51.114Z,5.55
2022-11-14T16:54:36.986Z,6.38
2022-11-14T16:57:23.078Z,3.70
2022-11-14T17:00:12.144Z,4.22
2022-11-14T17:02:57.162Z,4.55
2022-11-14T17:05:48.278Z,4.25
2022-11-14T17:08:33.380Z,3.20
2022-11-14T17:11:18.660Z,4.32
2022-11-14T17:14:04.139Z,3.35
2022-11-14T17:16:49.667Z,4.07
2022-11-14T17:19:34.968Z,3.65
2022-11-14T17:22:20.348Z,3.80
2022-11-14T17:25:05.904Z,4.80
2022-11-14T17:27:51.416Z,5.65
2022-11-14T17:30:43.709Z,5.00
2022-11-14T17:33:29.550Z,5.30
2022-11-14T17:36:14.950Z,4.13
2022-11-14T17:39:00.529Z,4.05
2022-11-14T17:41:46.081Z,4.15
2022-11-14T17:44:31.487Z,5.70
2022-11-14T17:47:17.067Z,5.97
2022-11-14T17:50:02.655Z,7.88
2022-11-14T17:52:47.880Z,5.57
2022-11-14T17:55:33.272Z,6.07
2022-11-14T17:58:18.745Z,7.32
2022-11-14T18:01:13.583Z,6.28
2022-11-14T18:04:04.522Z,6.55
2022-11-14T18:06:51.501Z,7.45
2022-11-14T18:09:37.125Z,10.25
2022-11-14T18:12:22.627Z,7.53
2022-11-14T18:15:08.550Z,6.70
2022-11-14T18:17:53.861Z,5.20
2022-11-14T18:20:39.272Z,5.32
2022-11-14T18:23:25.433Z,5.43
2022-11-14T18:26:16.257Z,5.30
2022-11-14T18:29:02.267Z,6.80
2022-11-14T18:31:48.229Z,7.22
2022-11-14T18:34:36.713Z,5.07
2022-11-14T18:40:13.394Z,3.45
2022-11-14T18:43:01.179Z,5.22
2022-11-14T18:45:46.482Z,3.63
2022-11-14T18:48:32.209Z,5.18
2022-11-14T18:51:20.723Z,11.82
2022-11-14T18:54:05.996Z,8.18
2022-11-14T18:56:51.685Z,5.07
2022-11-14T18:59:36.865Z,6.10
2022-11-14T19:02:22.528Z,5.10
2022-11-14T19:05:08.212Z,4.95
2022-11-14T19:07:53.576Z,4.03
2022-11-14T19:10:39.115Z,4.80
2022-11-14T19:13:24.803Z,4.22
2022-11-14T19:16:10.424Z,4.53
2022-11-14T19:18:56.202Z,7.63
2022-11-14T19:21:41.686Z,7.32
2022-11-14T19:24:26.814Z,6.28
2022-11-14T19:27:16.021Z,5.85
2022-11-14T19:30:01.162Z,7.55
2022-11-14T19:32:46.721Z,7.85
2022-11-14T19:35:31.940Z,6.93
2022-11-14T19:38:17.335Z,7.55
2022-11-14T19:41:07.805Z,8.90
2022-11-14T19:43:57.711Z,7.38
2022-11-14T19:46:47.185Z,10.60
2022-11-14T19:49:33.406Z,10.77
2022-11-14T19:52:18.801Z,11.65
2022-11-14T19:55:04.109Z,13.60
2022-11-14T19:57:49.527Z,11.60
2022-11-14T20:00:34.789Z,9.50
2022-11-14T20:03:20.119Z,10.07
2022-11-14T20:06:17.672Z,10.43
2022-11-14T20:09:06.411Z,9.95
2022-11-14T20:11:51.851Z,8.85
2022-11-14T20:14:37.230Z,8.68
2022-11-14T20:17:22.640Z,10.13
2022-11-14T20:20:08.487Z,9.30
2022-11-14T20:22:53.820Z,9.20
2022-11-14T20:25:40.277Z,8.52
2022-11-14T20:28:25.596Z,9.20
2022-11-14T20:31:16.405Z,9.85
2022-11-14T20:34:01.791Z,11.30
2022-11-14T20:37:09.964Z,9.25
2022-11-14T20:39:52.500Z,10.23
2022-11-14T20:42:37.807Z,11.40
2022-11-14T20:45:23.692Z,12.77
2022-11-14T20:48:08.974Z,11.73
2022-11-14T20:51:05.520Z,11.52
2022-11-14T20:53:52.849Z,12.05
2022-11-14T20:56:38.285Z,10.05
2022-11-14T20:59:23.694Z,8.88
2022-11-14T21:02:12.483Z,11.55
2022-11-14T21:04:57.654Z,11.20
2022-11-14T21:07:43.129Z,10.85
2022-11-14T21:14:55.747Z,8.18
2022-11-14T21:17:41.248Z,7.57
2022-11-14T21:20:26.613Z,7.43
2022-11-14T21:23:12.163Z,7.05
2022-11-14T21:26:01.736Z,7.22
2022-11-14T21:28:50.362Z,6.68
2022-11-14T21:31:38.992Z,7.78
2022-11-14T21:34:24.360Z,7.30
2022-11-14T21:37:09.791Z,7.03
2022-11-14T21:39:55.218Z,7.18
2022-11-14T21:42:41.935Z,5.55
2022-11-14T21:45:26.960Z,6.22
2022-11-14T21:48:12.303Z,6.85
2022-11-14T21:51:05.838Z,6.38
2022-11-14T21:53:55.256Z,7.10
2022-11-14T21:56:40.555Z,6.07
2022-11-14T21:59:28.067Z,5.38
2022-11-14T22:02:31.913Z,6.28
2022-11-14T22:05:17.199Z,8.32
2022-11-14T22:08:02.716Z,7.78
2022-11-14T22:10:48.128Z,8.00
2022-11-14T22:13:33.908Z,7.97
2022-11-14T22:16:19.642Z,6.13
2022-11-14T22:19:05.885Z,6.88
2022-11-14T22:21:51.581Z,5.75
2022-11-14T22:24:37.003Z,5.13
2022-11-14T22:27:22.396Z,4.45
2022-11-14T22:30:08.473Z,3.90
2022-11-14T22:32:53.878Z,3.85
2022-11-14T22:35:39.368Z,3.80
2022-11-14T22:38:24.764Z,3.35
2022-11-14T22:41:13.544Z,3.30
2022-11-14T22:43:59.524Z,3.63
2022-11-14T22:46:44.984Z,4.20
2022-11-14T22:49:30.063Z,3.35
2022-11-14T22:52:15.455Z,2.65
2022-11-14T22:55:00.811Z,3.00
2022-11-14T22:57:46.233Z,3.40
2022-11-14T23:00:31.630Z,3.65
2022-11-14T23:03:21.250Z,3.13
2022-11-14T23:06:11.857Z,2.30
2022-11-14T23:08:57.919Z,2.45
2022-11-14T23:11:43.573Z,2.30
2022-11-14T23:14:28.988Z,2.53
2022-11-14T23:17:14.416Z,2.50
2022-11-14T23:19:59.687Z,2.50
2022-11-14T23:22:45.716Z,2.67
2022-11-14T23:25:31.428Z,3.03
2022-11-14T23:28:16.749Z,2.58
2022-11-14T23:31:02.542Z,2.95
2022-11-14T23:33:48.590Z,2.22
2022-11-14T23:36:33.756Z,2.10
2022-11-14T23:39:19.270Z,2.33
2022-11-14T23:42:04.776Z,2.85
2022-11-14T23:44:50.324Z,2.83
2022-11-14T23:47:35.619Z,3.10
2022-11-14T23:50:21.071Z,3.58
2022-11-14T23:53:06.407Z,4.45
2022-11-14T23:55:56.767Z,5.38
2022-11-14T23:58:42.496Z,5.70
